Airfield :
LOGIN :

Register | Disclaimer

   EN    FR    IT 

 










Legend :    VFR   Marginal VFR   IFR   Intensive IFR   Very Intensive IFR
Visi :
Ceiling :
>= 8 km
>= 3000ft
5 to 8 km
1000 to 3000 ft
1500m to 5 km
500 to 1000 ft
800 to 1500m
200 to 500 ft
< 800m
< 200 ft
Symbols :   Thunderstorms  Fog  Heavy snow  Heavy precipitations  Wind > 20 kt
SIGMETs :     Misc.  Thunderstorms  Icing  Turbulence  Mountain Waves  Volcanic Ashes







- Airport Elevation : 776 ft
- IATA code : RMS


ETAR - Ramstein Air Base

CURRENT METAR :
  • 220356Z AUTO 00000KT 9999 CLR 09/09 A2998 RMK AO2 VIS 2600 RWY09 SLP150 T00850085 $

EXPIRED METARs :
  • 220256Z AUTO 00000KT 9999 CLR 08/08 A2999 RMK AO2 SLP154 T00830083 57014 $
  • 220156Z AUTO 00000KT 9999 CLR 09/09 A3001 RMK AO2 SLP160 T00930093 $

TAF TAF ETAR
Valid from the 22 at 02:00 until the 23 at 08:00 UTC


220200Z 2202/2308 VRB06KT 9999 FEW050 QNH2998INS
BECMG 2210/2211 22010G15KT 9999 SCT040 QNH2990INS
BECMG 2213/2214 22012G18KT 9000 -SHRA BKN040 QNH2985INS
TEMPO 2214/2218 23010G20KT 8000 -TSRA BKN030CB
BECMG 2217/2218 24009KT 9999 NSW BKN040 QNH2991INS
TEMPO 2305/2308 23010G20KT 5000 -TSRA BKN020CB TX26/2213Z TN06/2205Z
No reported NOTAMs for that airfield.



MET'MAP, your aeronautical weather chart ! - Copyright ORBIFLY December 2007 - Disclaimer

ORBIFLY MET'MAP TEAM :

Programming & Development : Alexandra Zaïnal
Concept & Development : Baudouin d'Aumeries
Co-Development & Prog : Marc-Olivier Méhu
Technical & hardware support : Manuel Goepfert

Contact : metmap@orbifly.com




SOURCES & CREDITS :

   NOAA